Tuckahoe, New Jersey
Current Conditions -  °F | °C
As of 8:54 PM on Sunday 25 Jan 2015 (Local Time) from KACY Reporting Station
Overcast Overcast  
Wind Chill: 38°   Ceiling: 4100
Heat Index: 41°   Visibility: 10mi
Dew Point: 31°   Wind: 5mph
Humidity: 67%   Direction: 40°NE
Pressure: 29.93"   Gusts: NA
Location:  39.29°N, 74.75°W
Report Text: KACY 260154Z 04004KT 10SM OVC041 05/M01 A2993 RMK AO2 SLP134 T00501006
Loading
Personal Weather Stations






























Interactive Weather Map New forecast layout! Learn more

10-Day Weather Forecast

Advertisements
Track Severe Weather on mobile